sensor_id;sensor_type;location;lat;lon;timestamp;P1;durP1;ratioP1;P2;durP2;ratioP2
37877;SDS011;23715;53.652;8.516;2022-07-31T00:09:58;17.40;;;16.17;;
37877;SDS011;23715;53.652;8.516;2022-07-31T00:14:59;17.87;;;16.57;;
37877;SDS011;23715;53.652;8.516;2022-07-31T00:20:00;20.37;;;18.55;;
37877;SDS011;23715;53.652;8.516;2022-07-31T00:25:01;17.80;;;16.67;;
37877;SDS011;23715;53.652;8.516;2022-07-31T00:30:03;18.87;;;17.42;;
37877;SDS011;23715;53.652;8.516;2022-07-31T00:35:04;18.98;;;17.42;;
37877;SDS011;23715;53.652;8.516;2022-07-31T00:40:05;19.12;;;17.82;;
37877;SDS011;23715;53.652;8.516;2022-07-31T00:45:07;20.07;;;18.50;;
37877;SDS011;23715;53.652;8.516;2022-07-31T00:50:09;19.73;;;18.27;;
37877;SDS011;23715;53.652;8.516;2022-07-31T00:55:10;19.75;;;18.35;;
37877;SDS011;23715;53.652;8.516;2022-07-31T01:00:11;19.50;;;18.07;;
37877;SDS011;23715;53.652;8.516;2022-07-31T01:05:12;21.42;;;19.73;;
37877;SDS011;23715;53.652;8.516;2022-07-31T01:10:17;20.48;;;18.82;;
37877;SDS011;23715;53.652;8.516;2022-07-31T01:15:17;20.20;;;18.83;;
37877;SDS011;23715;53.652;8.516;2022-07-31T01:20:20;21.10;;;19.52;;
37877;SDS011;23715;53.652;8.516;2022-07-31T01:30:31;20.83;;;19.10;;
37877;SDS011;23715;53.652;8.516;2022-07-31T01:35:34;21.10;;;19.60;;
37877;SDS011;23715;53.652;8.516;2022-07-31T01:40:40;22.50;;;20.48;;
37877;SDS011;23715;53.652;8.516;2022-07-31T01:45:43;22.37;;;20.95;;
37877;SDS011;23715;53.652;8.516;2022-07-31T01:50:46;22.35;;;20.85;;
37877;SDS011;23715;53.652;8.516;2022-07-31T01:55:50;21.07;;;19.67;;
37877;SDS011;23715;53.652;8.516;2022-07-31T02:00:52;22.35;;;20.72;;
37877;SDS011;23715;53.652;8.516;2022-07-31T02:05:55;20.52;;;19.23;;
37877;SDS011;23715;53.652;8.516;2022-07-31T02:10:59;21.65;;;19.95;;
37877;SDS011;23715;53.652;8.516;2022-07-31T02:16:02;21.73;;;20.23;;
37877;SDS011;23715;53.652;8.516;2022-07-31T02:21:03;20.60;;;19.30;;
37877;SDS011;23715;53.652;8.516;2022-07-31T02:31:05;20.45;;;19.05;;
37877;SDS011;23715;53.652;8.516;2022-07-31T02:36:08;21.48;;;19.90;;
37877;SDS011;23715;53.652;8.516;2022-07-31T02:41:11;20.17;;;18.83;;
37877;SDS011;23715;53.652;8.516;2022-07-31T02:46:13;21.45;;;20.05;;
37877;SDS011;23715;53.652;8.516;2022-07-31T02:51:14;21.50;;;20.17;;
37877;SDS011;23715;53.652;8.516;2022-07-31T02:56:15;20.80;;;19.23;;
37877;SDS011;23715;53.652;8.516;2022-07-31T03:01:16;21.20;;;19.53;;
37877;SDS011;23715;53.652;8.516;2022-07-31T03:06:17;21.23;;;19.70;;
37877;SDS011;23715;53.652;8.516;2022-07-31T03:16:17;20.75;;;19.15;;
37877;SDS011;23715;53.652;8.516;2022-07-31T03:21:19;21.70;;;20.17;;
37877;SDS011;23715;53.652;8.516;2022-07-31T03:26:20;20.00;;;18.75;;
37877;SDS011;23715;53.652;8.516;2022-07-31T03:36:20;19.52;;;18.10;;
37877;SDS011;23715;53.652;8.516;2022-07-31T03:41:21;20.72;;;19.30;;
37877;SDS011;23715;53.652;8.516;2022-07-31T03:46:22;20.23;;;18.60;;
37877;SDS011;23715;53.652;8.516;2022-07-31T03:51:23;18.98;;;17.45;;
37877;SDS011;23715;53.652;8.516;2022-07-31T03:56:25;19.35;;;17.77;;
37877;SDS011;23715;53.652;8.516;2022-07-31T04:01:27;17.60;;;16.25;;
37877;SDS011;23715;53.652;8.516;2022-07-31T04:06:29;17.20;;;15.83;;
37877;SDS011;23715;53.652;8.516;2022-07-31T04:11:30;18.35;;;16.82;;
37877;SDS011;23715;53.652;8.516;2022-07-31T04:16:31;16.42;;;15.30;;
37877;SDS011;23715;53.652;8.516;2022-07-31T04:21:32;17.75;;;16.27;;
37877;SDS011;23715;53.652;8.516;2022-07-31T04:26:32;16.42;;;15.15;;
37877;SDS011;23715;53.652;8.516;2022-07-31T04:31:33;18.80;;;17.23;;
37877;SDS011;23715;53.652;8.516;2022-07-31T04:36:35;18.80;;;17.45;;
37877;SDS011;23715;53.652;8.516;2022-07-31T04:41:37;19.45;;;18.23;;
37877;SDS011;23715;53.652;8.516;2022-07-31T04:46:38;22.50;;;20.77;;
37877;SDS011;23715;53.652;8.516;2022-07-31T04:51:41;21.73;;;20.02;;
37877;SDS011;23715;53.652;8.516;2022-07-31T04:56:41;23.50;;;21.52;;
37877;SDS011;23715;53.652;8.516;2022-07-31T05:01:43;22.75;;;21.25;;
37877;SDS011;23715;53.652;8.516;2022-07-31T05:06:47;23.62;;;21.95;;
37877;SDS011;23715;53.652;8.516;2022-07-31T05:11:49;23.10;;;21.30;;
37877;SDS011;23715;53.652;8.516;2022-07-31T05:16:52;23.73;;;21.57;;
37877;SDS011;23715;53.652;8.516;2022-07-31T05:22:01;22.52;;;20.88;;
37877;SDS011;23715;53.652;8.516;2022-07-31T05:27:16;20.73;;;19.13;;
37877;SDS011;23715;53.652;8.516;2022-07-31T05:32:17;21.90;;;19.87;;
37877;SDS011;23715;53.652;8.516;2022-07-31T05:37:17;20.97;;;19.37;;
37877;SDS011;23715;53.652;8.516;2022-07-31T05:47:22;21.62;;;19.92;;
37877;SDS011;23715;53.652;8.516;2022-07-31T05:52:22;21.00;;;19.50;;
37877;SDS011;23715;53.652;8.516;2022-07-31T05:57:24;20.95;;;19.45;;
37877;SDS011;23715;53.652;8.516;2022-07-31T06:07:43;19.48;;;18.07;;
37877;SDS011;23715;53.652;8.516;2022-07-31T06:12:42;18.00;;;16.60;;
37877;SDS011;23715;53.652;8.516;2022-07-31T06:17:43;18.50;;;17.05;;
37877;SDS011;23715;53.652;8.516;2022-07-31T06:22:51;18.27;;;16.93;;
37877;SDS011;23715;53.652;8.516;2022-07-31T06:27:52;17.00;;;15.70;;
37877;SDS011;23715;53.652;8.516;2022-07-31T06:32:52;15.28;;;14.05;;
37877;SDS011;23715;53.652;8.516;2022-07-31T06:37:55;16.30;;;14.85;;
37877;SDS011;23715;53.652;8.516;2022-07-31T06:42:57;14.47;;;13.32;;
37877;SDS011;23715;53.652;8.516;2022-07-31T06:48:16;14.50;;;13.30;;
37877;SDS011;23715;53.652;8.516;2022-07-31T06:53:20;14.87;;;13.88;;
37877;SDS011;23715;53.652;8.516;2022-07-31T06:58:21;15.65;;;14.35;;
37877;SDS011;23715;53.652;8.516;2022-07-31T07:03:22;15.90;;;14.70;;
37877;SDS011;23715;53.652;8.516;2022-07-31T07:08:23;15.43;;;14.20;;
37877;SDS011;23715;53.652;8.516;2022-07-31T07:13:24;14.00;;;13.08;;
37877;SDS011;23715;53.652;8.516;2022-07-31T07:18:25;15.45;;;14.25;;
37877;SDS011;23715;53.652;8.516;2022-07-31T07:23:27;15.85;;;14.55;;
37877;SDS011;23715;53.652;8.516;2022-07-31T07:28:45;12.93;;;11.75;;
37877;SDS011;23715;53.652;8.516;2022-07-31T07:33:46;12.43;;;11.43;;
37877;SDS011;23715;53.652;8.516;2022-07-31T07:38:52;12.60;;;11.83;;
37877;SDS011;23715;53.652;8.516;2022-07-31T07:43:53;11.70;;;10.80;;
37877;SDS011;23715;53.652;8.516;2022-07-31T07:48:55;12.95;;;11.85;;
37877;SDS011;23715;53.652;8.516;2022-07-31T07:54:10;13.85;;;12.93;;
37877;SDS011;23715;53.652;8.516;2022-07-31T07:59:30;13.80;;;12.80;;
37877;SDS011;23715;53.652;8.516;2022-07-31T08:04:44;14.65;;;13.53;;
37877;SDS011;23715;53.652;8.516;2022-07-31T08:09:46;15.43;;;14.25;;
37877;SDS011;23715;53.652;8.516;2022-07-31T08:14:57;14.55;;;13.45;;
37877;SDS011;23715;53.652;8.516;2022-07-31T08:20:10;15.65;;;14.45;;
37877;SDS011;23715;53.652;8.516;2022-07-31T08:25:11;16.00;;;14.70;;
37877;SDS011;23715;53.652;8.516;2022-07-31T08:30:11;16.05;;;14.85;;
37877;SDS011;23715;53.652;8.516;2022-07-31T08:35:13;15.40;;;14.30;;
37877;SDS011;23715;53.652;8.516;2022-07-31T08:40:15;14.00;;;13.10;;
37877;SDS011;23715;53.652;8.516;2022-07-31T08:45:16;15.53;;;14.53;;
37877;SDS011;23715;53.652;8.516;2022-07-31T08:50:18;15.32;;;13.95;;
37877;SDS011;23715;53.652;8.516;2022-07-31T08:55:20;15.28;;;14.07;;
37877;SDS011;23715;53.652;8.516;2022-07-31T09:00:22;13.83;;;12.82;;
37877;SDS011;23715;53.652;8.516;2022-07-31T09:05:23;14.18;;;13.18;;
37877;SDS011;23715;53.652;8.516;2022-07-31T09:10:25;12.53;;;11.65;;
37877;SDS011;23715;53.652;8.516;2022-07-31T09:15:29;13.98;;;12.95;;
37877;SDS011;23715;53.652;8.516;2022-07-31T09:20:31;14.43;;;13.28;;
37877;SDS011;23715;53.652;8.516;2022-07-31T09:25:32;14.23;;;13.22;;
37877;SDS011;23715;53.652;8.516;2022-07-31T09:30:33;14.30;;;13.32;;
37877;SDS011;23715;53.652;8.516;2022-07-31T09:35:44;13.78;;;12.82;;
37877;SDS011;23715;53.652;8.516;2022-07-31T09:40:48;13.57;;;12.57;;
37877;SDS011;23715;53.652;8.516;2022-07-31T09:46:07;12.80;;;11.93;;
37877;SDS011;23715;53.652;8.516;2022-07-31T09:51:09;11.70;;;10.73;;
37877;SDS011;23715;53.652;8.516;2022-07-31T09:56:10;11.63;;;10.70;;
37877;SDS011;23715;53.652;8.516;2022-07-31T10:01:13;11.93;;;10.93;;
37877;SDS011;23715;53.652;8.516;2022-07-31T10:06:14;13.05;;;11.90;;
37877;SDS011;23715;53.652;8.516;2022-07-31T10:11:23;14.70;;;12.98;;
37877;SDS011;23715;53.652;8.516;2022-07-31T10:16:22;11.35;;;10.53;;
37877;SDS011;23715;53.652;8.516;2022-07-31T10:21:40;11.53;;;10.72;;
37877;SDS011;23715;53.652;8.516;2022-07-31T10:26:44;9.90;;;9.30;;
37877;SDS011;23715;53.652;8.516;2022-07-31T10:31:45;11.12;;;10.38;;
37877;SDS011;23715;53.652;8.516;2022-07-31T10:36:47;11.68;;;10.50;;
37877;SDS011;23715;53.652;8.516;2022-07-31T10:42:24;13.72;;;11.90;;
37877;SDS011;23715;53.652;8.516;2022-07-31T10:47:51;12.35;;;11.48;;
37877;SDS011;23715;53.652;8.516;2022-07-31T10:53:11;13.15;;;11.95;;
37877;SDS011;23715;53.652;8.516;2022-07-31T10:58:24;13.03;;;11.88;;
37877;SDS011;23715;53.652;8.516;2022-07-31T11:03:35;13.60;;;12.50;;
37877;SDS011;23715;53.652;8.516;2022-07-31T11:08:51;13.58;;;12.20;;
37877;SDS011;23715;53.652;8.516;2022-07-31T11:14:00;12.40;;;11.30;;
37877;SDS011;23715;53.652;8.516;2022-07-31T11:19:08;12.63;;;11.45;;
37877;SDS011;23715;53.652;8.516;2022-07-31T11:24:16;12.78;;;11.85;;
37877;SDS011;23715;53.652;8.516;2022-07-31T11:29:25;13.55;;;12.58;;
37877;SDS011;23715;53.652;8.516;2022-07-31T11:39:46;12.37;;;11.33;;
37877;SDS011;23715;53.652;8.516;2022-07-31T11:44:47;12.35;;;11.33;;
37877;SDS011;23715;53.652;8.516;2022-07-31T11:49:48;13.30;;;12.07;;
37877;SDS011;23715;53.652;8.516;2022-07-31T11:55:01;13.48;;;12.15;;
37877;SDS011;23715;53.652;8.516;2022-07-31T11:59:55;14.23;;;12.88;;
37877;SDS011;23715;53.652;8.516;2022-07-31T12:04:56;13.03;;;11.88;;
37877;SDS011;23715;53.652;8.516;2022-07-31T12:09:57;13.18;;;12.07;;
37877;SDS011;23715;53.652;8.516;2022-07-31T12:14:58;12.98;;;11.75;;
37877;SDS011;23715;53.652;8.516;2022-07-31T12:20:04;13.83;;;12.60;;
37877;SDS011;23715;53.652;8.516;2022-07-31T12:25:08;13.98;;;12.68;;
37877;SDS011;23715;53.652;8.516;2022-07-31T12:30:13;16.85;;;15.25;;
37877;SDS011;23715;53.652;8.516;2022-07-31T12:35:15;17.50;;;16.17;;
37877;SDS011;23715;53.652;8.516;2022-07-31T12:40:25;18.02;;;16.00;;
37877;SDS011;23715;53.652;8.516;2022-07-31T12:45:30;17.70;;;16.45;;
37877;SDS011;23715;53.652;8.516;2022-07-31T12:50:32;19.80;;;18.17;;
37877;SDS011;23715;53.652;8.516;2022-07-31T12:55:33;26.45;;;24.45;;
37877;SDS011;23715;53.652;8.516;2022-07-31T13:00:33;25.23;;;22.95;;
37877;SDS011;23715;53.652;8.516;2022-07-31T13:05:33;27.70;;;25.40;;
37877;SDS011;23715;53.652;8.516;2022-07-31T13:10:34;30.33;;;27.67;;
37877;SDS011;23715;53.652;8.516;2022-07-31T13:15:34;29.18;;;26.77;;
37877;SDS011;23715;53.652;8.516;2022-07-31T13:20:35;30.70;;;28.27;;
37877;SDS011;23715;53.652;8.516;2022-07-31T13:25:35;29.77;;;27.40;;
37877;SDS011;23715;53.652;8.516;2022-07-31T13:30:36;31.80;;;29.25;;
37877;SDS011;23715;53.652;8.516;2022-07-31T13:35:37;31.40;;;28.47;;
37877;SDS011;23715;53.652;8.516;2022-07-31T13:40:39;30.02;;;27.35;;
37877;SDS011;23715;53.652;8.516;2022-07-31T13:45:58;29.80;;;26.82;;
37877;SDS011;23715;53.652;8.516;2022-07-31T13:50:58;31.25;;;27.98;;
37877;SDS011;23715;53.652;8.516;2022-07-31T13:55:59;31.05;;;26.23;;
37877;SDS011;23715;53.652;8.516;2022-07-31T14:01:00;27.55;;;25.45;;
37877;SDS011;23715;53.652;8.516;2022-07-31T14:06:00;26.52;;;24.30;;
37877;SDS011;23715;53.652;8.516;2022-07-31T14:16:00;24.10;;;22.27;;
37877;SDS011;23715;53.652;8.516;2022-07-31T14:31:02;23.83;;;21.83;;
37877;SDS011;23715;53.652;8.516;2022-07-31T14:36:03;23.95;;;22.13;;
37877;SDS011;23715;53.652;8.516;2022-07-31T14:41:03;24.47;;;22.42;;
37877;SDS011;23715;53.652;8.516;2022-07-31T14:46:04;23.98;;;21.87;;
37877;SDS011;23715;53.652;8.516;2022-07-31T14:51:05;24.30;;;22.58;;
37877;SDS011;23715;53.652;8.516;2022-07-31T15:01:05;22.45;;;20.82;;
37877;SDS011;23715;53.652;8.516;2022-07-31T15:06:05;23.80;;;22.10;;
37877;SDS011;23715;53.652;8.516;2022-07-31T15:11:05;23.50;;;22.02;;
37877;SDS011;23715;53.652;8.516;2022-07-31T15:16:06;24.37;;;22.80;;
37877;SDS011;23715;53.652;8.516;2022-07-31T15:21:10;25.17;;;23.33;;
37877;SDS011;23715;53.652;8.516;2022-07-31T15:26:13;25.82;;;24.05;;
37877;SDS011;23715;53.652;8.516;2022-07-31T15:31:14;27.25;;;25.45;;
37877;SDS011;23715;53.652;8.516;2022-07-31T15:36:14;27.95;;;25.95;;
37877;SDS011;23715;53.652;8.516;2022-07-31T15:41:15;29.63;;;27.10;;
37877;SDS011;23715;53.652;8.516;2022-07-31T15:46:15;32.93;;;30.12;;
37877;SDS011;23715;53.652;8.516;2022-07-31T15:51:16;29.80;;;27.60;;
37877;SDS011;23715;53.652;8.516;2022-07-31T16:01:16;32.90;;;30.45;;
37877;SDS011;23715;53.652;8.516;2022-07-31T16:06:16;33.15;;;30.75;;
37877;SDS011;23715;53.652;8.516;2022-07-31T16:11:17;34.55;;;31.97;;
37877;SDS011;23715;53.652;8.516;2022-07-31T16:16:17;34.88;;;32.35;;
37877;SDS011;23715;53.652;8.516;2022-07-31T16:21:18;34.75;;;31.97;;
37877;SDS011;23715;53.652;8.516;2022-07-31T16:26:18;35.90;;;33.20;;
37877;SDS011;23715;53.652;8.516;2022-07-31T16:31:20;36.60;;;33.90;;
37877;SDS011;23715;53.652;8.516;2022-07-31T16:36:21;34.43;;;32.03;;
37877;SDS011;23715;53.652;8.516;2022-07-31T16:41:22;35.35;;;32.63;;
37877;SDS011;23715;53.652;8.516;2022-07-31T16:46:22;36.50;;;33.63;;
37877;SDS011;23715;53.652;8.516;2022-07-31T16:51:22;36.03;;;33.20;;
37877;SDS011;23715;53.652;8.516;2022-07-31T16:56:23;35.15;;;32.65;;
37877;SDS011;23715;53.652;8.516;2022-07-31T17:01:23;34.25;;;31.75;;
37877;SDS011;23715;53.652;8.516;2022-07-31T17:06:24;32.53;;;30.12;;
37877;SDS011;23715;53.652;8.516;2022-07-31T17:11:25;33.50;;;31.27;;
37877;SDS011;23715;53.652;8.516;2022-07-31T17:16:25;32.53;;;30.43;;
37877;SDS011;23715;53.652;8.516;2022-07-31T17:21:26;33.50;;;31.15;;
37877;SDS011;23715;53.652;8.516;2022-07-31T17:26:26;33.28;;;31.05;;
37877;SDS011;23715;53.652;8.516;2022-07-31T17:31:26;34.63;;;32.20;;
37877;SDS011;23715;53.652;8.516;2022-07-31T17:36:27;36.25;;;33.75;;
37877;SDS011;23715;53.652;8.516;2022-07-31T17:41:28;35.50;;;33.00;;
37877;SDS011;23715;53.652;8.516;2022-07-31T17:46:28;36.80;;;34.10;;
37877;SDS011;23715;53.652;8.516;2022-07-31T17:56:28;36.90;;;34.18;;
37877;SDS011;23715;53.652;8.516;2022-07-31T18:06:29;36.93;;;34.10;;
37877;SDS011;23715;53.652;8.516;2022-07-31T18:11:29;36.28;;;33.67;;
37877;SDS011;23715;53.652;8.516;2022-07-31T18:16:30;33.67;;;31.45;;
37877;SDS011;23715;53.652;8.516;2022-07-31T18:21:30;33.95;;;31.60;;
37877;SDS011;23715;53.652;8.516;2022-07-31T18:26:31;31.12;;;29.02;;
37877;SDS011;23715;53.652;8.516;2022-07-31T18:31:33;33.15;;;30.90;;
37877;SDS011;23715;53.652;8.516;2022-07-31T18:36:34;34.15;;;31.75;;
37877;SDS011;23715;53.652;8.516;2022-07-31T18:41:35;31.33;;;29.07;;
37877;SDS011;23715;53.652;8.516;2022-07-31T18:46:35;32.67;;;30.35;;
37877;SDS011;23715;53.652;8.516;2022-07-31T18:56:36;28.95;;;27.02;;
37877;SDS011;23715;53.652;8.516;2022-07-31T19:01:36;25.25;;;23.60;;
37877;SDS011;23715;53.652;8.516;2022-07-31T19:06:37;26.97;;;25.25;;
37877;SDS011;23715;53.652;8.516;2022-07-31T19:11:37;24.15;;;22.75;;
37877;SDS011;23715;53.652;8.516;2022-07-31T19:16:46;22.32;;;21.12;;
37877;SDS011;23715;53.652;8.516;2022-07-31T19:21:43;20.80;;;19.65;;
37877;SDS011;23715;53.652;8.516;2022-07-31T19:31:49;21.02;;;19.92;;
37877;SDS011;23715;53.652;8.516;2022-07-31T19:36:45;22.42;;;21.02;;
37877;SDS011;23715;53.652;8.516;2022-07-31T19:41:46;22.17;;;20.82;;
37877;SDS011;23715;53.652;8.516;2022-07-31T19:46:46;19.73;;;18.70;;
37877;SDS011;23715;53.652;8.516;2022-07-31T19:56:46;21.00;;;19.90;;
37877;SDS011;23715;53.652;8.516;2022-07-31T20:01:47;21.37;;;20.17;;
37877;SDS011;23715;53.652;8.516;2022-07-31T20:06:47;22.35;;;21.15;;
37877;SDS011;23715;53.652;8.516;2022-07-31T20:11:49;21.93;;;20.43;;
37877;SDS011;23715;53.652;8.516;2022-07-31T20:16:50;22.48;;;21.07;;
37877;SDS011;23715;53.652;8.516;2022-07-31T20:21:50;20.80;;;19.52;;
37877;SDS011;23715;53.652;8.516;2022-07-31T20:31:50;22.73;;;21.33;;
37877;SDS011;23715;53.652;8.516;2022-07-31T20:36:51;22.13;;;20.62;;
37877;SDS011;23715;53.652;8.516;2022-07-31T20:41:58;21.85;;;20.55;;
37877;SDS011;23715;53.652;8.516;2022-07-31T20:46:58;23.02;;;21.50;;
37877;SDS011;23715;53.652;8.516;2022-07-31T20:56:58;22.40;;;21.00;;
37877;SDS011;23715;53.652;8.516;2022-07-31T21:06:58;24.20;;;22.80;;
37877;SDS011;23715;53.652;8.516;2022-07-31T21:11:59;25.70;;;23.87;;
37877;SDS011;23715;53.652;8.516;2022-07-31T21:16:59;25.32;;;23.42;;
37877;SDS011;23715;53.652;8.516;2022-07-31T21:22:00;25.15;;;23.35;;
37877;SDS011;23715;53.652;8.516;2022-07-31T21:32:01;25.97;;;24.23;;
37877;SDS011;23715;53.652;8.516;2022-07-31T21:37:03;27.42;;;25.65;;
37877;SDS011;23715;53.652;8.516;2022-07-31T21:42:04;27.25;;;25.25;;
37877;SDS011;23715;53.652;8.516;2022-07-31T21:47:05;26.33;;;24.25;;
37877;SDS011;23715;53.652;8.516;2022-07-31T21:52:11;27.22;;;25.12;;
37877;SDS011;23715;53.652;8.516;2022-07-31T21:57:12;26.62;;;24.82;;
37877;SDS011;23715;53.652;8.516;2022-07-31T22:02:12;27.22;;;25.23;;
37877;SDS011;23715;53.652;8.516;2022-07-31T22:07:13;26.52;;;24.80;;
37877;SDS011;23715;53.652;8.516;2022-07-31T22:12:31;27.20;;;25.30;;
37877;SDS011;23715;53.652;8.516;2022-07-31T22:17:32;25.82;;;24.25;;
37877;SDS011;23715;53.652;8.516;2022-07-31T22:22:33;24.30;;;22.80;;
37877;SDS011;23715;53.652;8.516;2022-07-31T22:27:35;25.88;;;24.07;;
37877;SDS011;23715;53.652;8.516;2022-07-31T22:32:53;25.65;;;23.92;;
37877;SDS011;23715;53.652;8.516;2022-07-31T22:37:56;25.08;;;23.52;;
37877;SDS011;23715;53.652;8.516;2022-07-31T22:42:56;27.00;;;25.23;;
37877;SDS011;23715;53.652;8.516;2022-07-31T22:47:58;26.20;;;24.70;;
37877;SDS011;23715;53.652;8.516;2022-07-31T22:57:58;28.35;;;26.50;;
37877;SDS011;23715;53.652;8.516;2022-07-31T23:02:59;28.23;;;26.27;;
37877;SDS011;23715;53.652;8.516;2022-07-31T23:07:59;29.90;;;27.95;;
37877;SDS011;23715;53.652;8.516;2022-07-31T23:12:59;27.37;;;25.75;;
37877;SDS011;23715;53.652;8.516;2022-07-31T23:18:00;25.75;;;24.15;;
37877;SDS011;23715;53.652;8.516;2022-07-31T23:23:00;22.95;;;21.55;;
37877;SDS011;23715;53.652;8.516;2022-07-31T23:28:01;23.75;;;22.45;;
37877;SDS011;23715;53.652;8.516;2022-07-31T23:38:03;24.10;;;22.62;;
37877;SDS011;23715;53.652;8.516;2022-07-31T23:48:04;22.13;;;20.87;;
37877;SDS011;23715;53.652;8.516;2022-07-31T23:53:04;23.12;;;21.73;;
37877;SDS011;23715;53.652;8.516;2022-07-31T23:58:05;22.20;;;21.00;;
